sensor_id;sensor_type;location;lat;lon;timestamp;pressure;altitude;pressure_sealevel;temperature;humidity
5350;BME280;2697;42.144;24.794;2023-04-01T00:01:02;155143.81;;;9.99;100.00
5350;BME280;2697;42.144;24.794;2023-04-01T00:03:28;155146.44;;;10.00;100.00
5350;BME280;2697;42.144;24.794;2023-04-01T00:05:55;155096.44;;;9.81;100.00
5350;BME280;2697;42.144;24.794;2023-04-01T00:08:21;155064.88;;;9.69;100.00
5350;BME280;2697;42.144;24.794;2023-04-01T00:10:47;155078.00;;;9.74;100.00
5350;BME280;2697;42.144;24.794;2023-04-01T00:13:12;155103.00;;;9.84;100.00
5350;BME280;2697;42.144;24.794;2023-04-01T00:15:38;155139.88;;;9.98;100.00
5350;BME280;2697;42.144;24.794;2023-04-01T00:18:03;155211.00;;;10.25;100.00
5350;BME280;2697;42.144;24.794;2023-04-01T00:20:29;155217.56;;;10.28;100.00
5350;BME280;2697;42.144;24.794;2023-04-01T00:22:55;155230.75;;;10.33;100.00
5350;BME280;2697;42.144;24.794;2023-04-01T00:25:21;155201.75;;;10.22;100.00
5350;BME280;2697;42.144;24.794;2023-04-01T00:27:47;155170.13;;;10.10;100.00
5350;BME280;2697;42.144;24.794;2023-04-01T00:30:13;155184.63;;;10.15;100.00
5350;BME280;2697;42.144;24.794;2023-04-01T00:32:38;155214.94;;;10.27;100.00
5350;BME280;2697;42.144;24.794;2023-04-01T00:35:04;155220.19;;;10.29;100.00
5350;BME280;2697;42.144;24.794;2023-04-01T00:37:30;155187.25;;;10.16;100.00
5350;BME280;2697;42.144;24.794;2023-04-01T00:39:56;155178.00;;;10.13;100.00
5350;BME280;2697;42.144;24.794;2023-04-01T00:42:22;155185.94;;;10.16;100.00
5350;BME280;2697;42.144;24.794;2023-04-01T00:44:51;155187.25;;;10.16;100.00
5350;BME280;2697;42.144;24.794;2023-04-01T00:47:18;155133.25;;;9.95;100.00
5350;BME280;2697;42.144;24.794;2023-04-01T00:49:46;155125.38;;;9.92;100.00
5350;BME280;2697;42.144;24.794;2023-04-01T00:52:16;155121.44;;;9.91;100.00
5350;BME280;2697;42.144;24.794;2023-04-01T00:54:46;155156.94;;;10.05;100.00
5350;BME280;2697;42.144;24.794;2023-04-01T00:57:18;155164.88;;;10.08;100.00
5350;BME280;2697;42.144;24.794;2023-04-01T00:59:47;155158.31;;;10.05;100.00
5350;BME280;2697;42.144;24.794;2023-04-01T01:02:15;155181.94;;;10.14;100.00
5350;BME280;2697;42.144;24.794;2023-04-01T01:04:41;155214.94;;;10.27;100.00
5350;BME280;2697;42.144;24.794;2023-04-01T01:07:35;155191.19;;;10.18;100.00
5350;BME280;2697;42.144;24.794;2023-04-01T01:10:19;155233.38;;;10.34;100.00
5350;BME280;2697;42.144;24.794;2023-04-01T01:15:25;155257.09;;;10.43;100.00
5350;BME280;2697;42.144;24.794;2023-04-01T01:18:12;155241.25;;;10.37;100.00
5350;BME280;2697;42.144;24.794;2023-04-01T01:35:43;155321.56;;;10.68;100.00
5350;BME280;2697;42.144;24.794;2023-04-01T01:38:15;155312.38;;;10.65;100.00
5350;BME280;2697;42.144;24.794;2023-04-01T01:40:44;155324.19;;;10.69;100.00
5350;BME280;2697;42.144;24.794;2023-04-01T01:43:14;155279.47;;;10.52;100.00
5350;BME280;2697;42.144;24.794;2023-04-01T01:45:46;155261.03;;;10.45;100.00
5350;BME280;2697;42.144;24.794;2023-04-01T01:48:13;155249.16;;;10.40;100.00
5350;BME280;2697;42.144;24.794;2023-04-01T01:50:41;155229.41;;;10.33;100.00
5350;BME280;2697;42.144;24.794;2023-04-01T01:53:10;155191.19;;;10.18;100.00
5350;BME280;2697;42.144;24.794;2023-04-01T01:55:38;155193.81;;;10.19;100.00
5350;BME280;2697;42.144;24.794;2023-04-01T02:00:40;155137.25;;;9.97;100.00
5350;BME280;2697;42.144;24.794;2023-04-01T02:03:10;155122.75;;;9.91;100.00
5350;BME280;2697;42.144;24.794;2023-04-01T02:05:37;155128.00;;;9.93;100.00
5350;BME280;2697;42.144;24.794;2023-04-01T02:08:11;155105.63;;;9.85;100.00
5350;BME280;2697;42.144;24.794;2023-04-01T02:10:41;155078.00;;;9.74;100.00
5350;BME280;2697;42.144;24.794;2023-04-01T02:13:20;151253.00;;;9.74;100.00
5350;BME280;2697;42.144;24.794;2023-04-01T02:15:50;139058.38;;;9.60;100.00
5350;BME280;2697;42.144;24.794;2023-04-01T02:18:21;112089.53;;;9.58;100.00
5350;BME280;2697;42.144;24.794;2023-04-01T02:20:48;110357.78;;;9.53;100.00
5350;BME280;2697;42.144;24.794;2023-04-01T02:23:14;115497.44;;;9.37;100.00
5350;BME280;2697;42.144;24.794;2023-04-01T02:25:41;122036.03;;;9.29;100.00
5350;BME280;2697;42.144;24.794;2023-04-01T02:28:07;120612.41;;;9.08;100.00
5350;BME280;2697;42.144;24.794;2023-04-01T02:30:36;107134.19;;;8.82;100.00
5350;BME280;2697;42.144;24.794;2023-04-01T02:33:03;100251.19;;;8.74;100.00
5350;BME280;2697;42.144;24.794;2023-04-01T02:35:29;95452.44;;;8.75;100.00
5350;BME280;2697;42.144;24.794;2023-04-01T02:37:55;85499.16;;;8.55;100.00
5350;BME280;2697;42.144;24.794;2023-04-01T02:40:21;70128.41;;;8.37;100.00
5350;BME280;2697;42.144;24.794;2023-04-01T02:42:46;67785.97;;;8.71;100.00
5350;BME280;2697;42.144;24.794;2023-04-01T02:45:13;68787.19;;;8.54;100.00
5350;BME280;2697;42.144;24.794;2023-04-01T02:47:39;67764.13;;;8.52;100.00
5350;BME280;2697;42.144;24.794;2023-04-01T02:50:06;63321.28;;;8.31;100.00
5350;BME280;2697;42.144;24.794;2023-04-01T02:52:31;58900.50;;;8.23;100.00
5350;BME280;2697;42.144;24.794;2023-04-01T02:54:58;51761.00;;;7.99;100.00
5350;BME280;2697;42.144;24.794;2023-04-01T02:57:24;40917.03;;;7.63;100.00
5350;BME280;2697;42.144;24.794;2023-04-01T02:59:49;35508.28;;;7.40;100.00
5350;BME280;2697;42.144;24.794;2023-04-01T03:02:16;30123.22;;;7.41;100.00
5350;BME280;2697;42.144;24.794;2023-04-01T03:04:42;27096.09;;;7.39;100.00
5350;BME280;2697;42.144;24.794;2023-04-01T03:07:08;20374.66;;;7.24;100.00
5350;BME280;2697;42.144;24.794;2023-04-01T03:09:36;14675.41;;;7.21;100.00
5350;BME280;2697;42.144;24.794;2023-04-01T03:12:01;11659.84;;;7.09;100.00
5350;BME280;2697;42.144;24.794;2023-04-01T03:14:27;10989.66;;;7.04;100.00
5350;BME280;2697;42.144;24.794;2023-04-01T03:16:52;10990.06;;;7.06;100.00
5350;BME280;2697;42.144;24.794;2023-04-01T03:19:18;11657.72;;;6.99;100.00
5350;BME280;2697;42.144;24.794;2023-04-01T03:21:43;10988.25;;;6.97;100.00
5350;BME280;2697;42.144;24.794;2023-04-01T03:24:08;11655.69;;;6.90;100.00
5350;BME280;2697;42.144;24.794;2023-04-01T03:26:34;11322.88;;;6.98;100.00
5350;BME280;2697;42.144;24.794;2023-04-01T03:28:59;11659.63;;;7.08;100.00
5350;BME280;2697;42.144;24.794;2023-04-01T03:31:25;14004.84;;;7.18;100.00
5350;BME280;2697;42.144;24.794;2023-04-01T03:33:51;12663.13;;;7.06;100.00
5350;BME280;2697;42.144;24.794;2023-04-01T03:36:17;11998.59;;;7.29;100.00
5350;BME280;2697;42.144;24.794;2023-04-01T03:38:44;16021.34;;;7.42;100.00
5350;BME280;2697;42.144;24.794;2023-04-01T03:41:14;15682.84;;;7.30;100.00
5350;BME280;2697;42.144;24.794;2023-04-01T03:43:41;17024.09;;;7.32;100.00
5350;BME280;2697;42.144;24.794;2023-04-01T03:46:06;17020.63;;;7.21;100.00
5350;BME280;2697;42.144;24.794;2023-04-01T03:48:31;15680.59;;;7.22;100.00
5350;BME280;2697;42.144;24.794;2023-04-01T03:50:57;16014.22;;;7.17;100.00
5350;BME280;2697;42.144;24.794;2023-04-01T03:53:22;15678.66;;;7.14;100.00
5350;BME280;2697;42.144;24.794;2023-04-01T03:55:48;14672.63;;;7.10;100.00
5350;BME280;2697;42.144;24.794;2023-04-01T03:58:14;13332.28;;;7.05;100.00
5350;BME280;2697;42.144;24.794;2023-04-01T04:00:39;11994.78;;;7.11;100.00
5350;BME280;2697;42.144;24.794;2023-04-01T04:03:06;11328.75;;;7.27;100.00
5350;BME280;2697;42.144;24.794;2023-04-01T04:05:31;9322.53;;;7.34;100.00
5350;BME280;2697;42.144;24.794;2023-04-01T04:07:56;9660.66;;;7.55;100.00
5350;BME280;2697;42.144;24.794;2023-04-01T04:10:22;8992.88;;;7.64;100.00
5350;BME280;2697;42.144;24.794;2023-04-01T04:12:49;9328.25;;;7.68;100.00
5350;BME280;2697;42.144;24.794;2023-04-01T04:15:15;8659.91;;;7.75;100.00
5350;BME280;2697;42.144;24.794;2023-04-01T04:17:40;8998.16;;;7.96;100.00
5350;BME280;2697;42.144;24.794;2023-04-01T04:20:07;9334.78;;;8.06;100.00
5350;BME280;2697;42.144;24.794;2023-04-01T04:22:33;9672.78;;;8.23;100.00
5350;BME280;2697;42.144;24.794;2023-04-01T04:24:58;10012.38;;;8.48;100.00
5350;BME280;2697;42.144;24.794;2023-04-01T04:27:24;8679.97;;;9.00;100.00
5350;BME280;2697;42.144;24.794;2023-04-01T04:29:49;14728.25;;;9.25;100.00
5350;BME280;2697;42.144;24.794;2023-04-01T04:32:14;23146.94;;;9.46;100.00
5350;BME280;2697;42.144;24.794;2023-04-01T04:34:40;30909.31;;;9.58;100.00
5350;BME280;2697;42.144;24.794;2023-04-01T04:37:05;40715.56;;;9.62;100.00
5350;BME280;2697;42.144;24.794;2023-04-01T04:39:30;52602.69;;;9.87;100.00
5350;BME280;2697;42.144;24.794;2023-04-01T04:41:56;62148.13;;;10.10;100.00
5350;BME280;2697;42.144;24.794;2023-04-01T04:44:21;84737.81;;;10.43;100.00
5350;BME280;2697;42.144;24.794;2023-04-01T04:46:47;107448.50;;;10.59;100.00
5350;BME280;2697;42.144;24.794;2023-04-01T04:49:12;154021.88;;;11.40;100.00
5350;BME280;2697;42.144;24.794;2023-04-01T04:51:38;155474.41;;;11.27;100.00
5350;BME280;2697;42.144;24.794;2023-04-01T04:54:04;155370.28;;;10.87;100.00
5350;BME280;2697;42.144;24.794;2023-04-01T04:56:30;155362.41;;;10.84;100.00
5350;BME280;2697;42.144;24.794;2023-04-01T04:58:56;151601.34;;;10.64;100.00
5350;BME280;2697;42.144;24.794;2023-04-01T05:01:21;126115.03;;;10.63;100.00
5350;BME280;2697;42.144;24.794;2023-04-01T05:03:47;127860.00;;;10.69;100.00
5350;BME280;2697;42.144;24.794;2023-04-01T05:06:14;118488.78;;;10.55;100.00
5350;BME280;2697;42.144;24.794;2023-04-01T05:08:41;104931.28;;;9.98;100.00
5350;BME280;2697;42.144;24.794;2023-04-01T05:11:10;73413.72;;;10.18;100.00
5350;BME280;2697;42.144;24.794;2023-04-01T05:13:36;91854.03;;;9.86;100.00
5350;BME280;2697;42.144;24.794;2023-04-01T05:16:02;91573.84;;;10.27;100.00
5350;BME280;2697;42.144;24.794;2023-04-01T05:18:27;122203.63;;;10.12;100.00
5350;BME280;2697;42.144;24.794;2023-04-01T05:20:54;113949.63;;;10.30;100.00
5350;BME280;2697;42.144;24.794;2023-04-01T05:23:21;123290.00;;;10.36;100.00
5350;BME280;2697;42.144;24.794;2023-04-01T05:25:48;133308.59;;;10.24;100.00
5350;BME280;2697;42.144;24.794;2023-04-01T05:28:13;153031.09;;;10.30;100.00
5350;BME280;2697;42.144;24.794;2023-04-01T05:30:40;155258.41;;;10.44;100.00
5350;BME280;2697;42.144;24.794;2023-04-01T05:33:07;154935.72;;;10.13;100.00
5350;BME280;2697;42.144;24.794;2023-04-01T05:35:32;128381.19;;;9.88;100.00
5350;BME280;2697;42.144;24.794;2023-04-01T05:37:58;102140.69;;;9.76;100.00
5350;BME280;2697;42.144;24.794;2023-04-01T05:40:23;98405.44;;;10.04;100.00
5350;BME280;2697;42.144;24.794;2023-04-01T05:42:48;114949.06;;;10.11;100.00
5350;BME280;2697;42.144;24.794;2023-04-01T05:45:14;99024.06;;;9.62;100.00
5350;BME280;2697;42.144;24.794;2023-04-01T05:47:41;100461.09;;;9.99;100.00
5350;BME280;2697;42.144;24.794;2023-04-01T05:50:08;99423.94;;;9.96;100.00
5350;BME280;2697;42.144;24.794;2023-04-01T05:52:33;128790.56;;;10.18;100.00
5350;BME280;2697;42.144;24.794;2023-04-01T05:54:59;143750.06;;;10.35;100.00
5350;BME280;2697;42.144;24.794;2023-04-01T05:57:25;120807.72;;;10.05;100.00
5350;BME280;2697;42.144;24.794;2023-04-01T05:59:51;109076.47;;;10.06;100.00
5350;BME280;2697;42.144;24.794;2023-04-01T06:02:17;105290.63;;;10.07;100.00
5350;BME280;2697;42.144;24.794;2023-04-01T06:04:44;83288.13;;;9.86;100.00
5350;BME280;2697;42.144;24.794;2023-04-01T06:07:13;75087.75;;;9.90;100.00
5350;BME280;2697;42.144;24.794;2023-04-01T06:09:41;71712.72;;;10.23;100.00
5350;BME280;2697;42.144;24.794;2023-04-01T06:15:01;108528.72;;;10.84;100.00
5350;BME280;2697;42.144;24.794;2023-04-01T06:25:24;136506.50;;;10.57;100.00
5350;BME280;2697;42.144;24.794;2023-04-01T06:30:30;140122.06;;;11.19;100.00
5350;BME280;2697;42.144;24.794;2023-04-01T06:49:23;155624.66;;;11.85;100.00
5350;BME280;2697;42.144;24.794;2023-04-01T06:51:59;155589.00;;;11.71;100.00
5350;BME280;2697;42.144;24.794;2023-04-01T06:54:36;155686.59;;;12.09;100.00
5350;BME280;2697;42.144;24.794;2023-04-01T06:57:22;155694.53;;;12.12;100.00
5350;BME280;2697;42.144;24.794;2023-04-01T06:59:49;155871.22;;;12.80;100.00
5350;BME280;2697;42.144;24.794;2023-04-01T07:02:24;155768.38;;;12.41;100.00
5350;BME280;2697;42.144;24.794;2023-04-01T07:04:54;155823.75;;;12.62;100.00
5350;BME280;2697;42.144;24.794;2023-04-01T07:10:05;155942.47;;;13.08;100.00
5350;BME280;2697;42.144;24.794;2023-04-01T07:12:46;155976.81;;;13.21;100.00
5350;BME280;2697;42.144;24.794;2023-04-01T07:15:19;155996.59;;;13.29;100.00
5350;BME280;2697;42.144;24.794;2023-04-01T07:17:47;156020.34;;;13.38;100.00
5350;BME280;2697;42.144;24.794;2023-04-01T07:20:25;156036.22;;;13.44;100.00
5350;BME280;2697;42.144;24.794;2023-04-01T07:22:56;156098.25;;;13.68;100.00
5350;BME280;2697;42.144;24.794;2023-04-01T07:25:34;156143.09;;;13.85;100.00
5350;BME280;2697;42.144;24.794;2023-04-01T07:28:14;156202.53;;;14.08;100.00
5350;BME280;2697;42.144;24.794;2023-04-01T07:33:19;156243.50;;;14.24;100.00
5350;BME280;2697;42.144;24.794;2023-04-01T07:35:56;156203.84;;;14.09;100.00
5350;BME280;2697;42.144;24.794;2023-04-01T07:41:09;156268.56;;;14.34;100.00
5350;BME280;2697;42.144;24.794;2023-04-01T07:49:58;156334.63;;;14.59;100.00
5350;BME280;2697;42.144;24.794;2023-04-01T07:52:39;156287.03;;;14.41;100.00
5350;BME280;2697;42.144;24.794;2023-04-01T07:55:27;156273.84;;;14.36;100.00
5350;BME280;2697;42.144;24.794;2023-04-01T08:00:48;156312.16;;;14.50;100.00
5350;BME280;2697;42.144;24.794;2023-04-01T08:05:58;156456.16;;;15.06;100.00
5350;BME280;2697;42.144;24.794;2023-04-01T08:14:21;156248.75;;;14.26;100.00
5350;BME280;2697;42.144;24.794;2023-04-01T08:17:14;156206.50;;;14.10;100.00
5350;BME280;2697;42.144;24.794;2023-04-01T08:22:41;156268.56;;;14.34;100.00
5350;BME280;2697;42.144;24.794;2023-04-01T08:25:13;156191.94;;;14.04;100.00
5350;BME280;2697;42.144;24.794;2023-04-01T08:27:43;156276.47;;;14.37;100.00
5350;BME280;2697;42.144;24.794;2023-04-01T08:30:25;156244.81;;;14.24;100.00
5350;BME280;2697;42.144;24.794;2023-04-01T08:33:03;156203.84;;;14.09;100.00
5350;BME280;2697;42.144;24.794;2023-04-01T08:35:38;156230.25;;;14.19;100.00
5350;BME280;2697;42.144;24.794;2023-04-01T08:38:12;156283.06;;;14.39;100.00
5350;BME280;2697;42.144;24.794;2023-04-01T08:40:58;156365.03;;;14.71;100.00
5350;BME280;2697;42.144;24.794;2023-04-01T08:51:42;156384.81;;;14.78;100.00
5350;BME280;2697;42.144;24.794;2023-04-01T08:59:58;156404.66;;;14.86;100.00
5350;BME280;2697;42.144;24.794;2023-04-01T09:33:41;156415.25;;;14.90;100.00
5350;BME280;2697;42.144;24.794;2023-04-01T09:39:03;156539.44;;;15.38;100.00
5350;BME280;2697;42.144;24.794;2023-04-01T09:44:56;156425.78;;;14.94;100.00
5350;BME280;2697;42.144;24.794;2023-04-01T09:50:43;156831.72;;;16.50;95.68
5350;BME280;2697;42.144;24.794;2023-04-01T10:16:50;156923.06;;;16.86;86.93
5350;BME280;2697;42.144;24.794;2023-04-01T10:25:57;157422.28;;;18.77;74.29
5350;BME280;2697;42.144;24.794;2023-04-01T10:36:52;157357.34;;;18.52;77.57
5350;BME280;2697;42.144;24.794;2023-04-01T10:39:33;157293.75;;;18.28;78.73
5350;BME280;2697;42.144;24.794;2023-04-01T10:59:15;157161.31;;;17.77;85.14
5350;BME280;2697;42.144;24.794;2023-04-01T11:19:32;157962.06;;;20.85;65.51
5350;BME280;2697;42.144;24.794;2023-04-01T11:25:02;157656.94;;;19.68;69.21
5350;BME280;2697;42.144;24.794;2023-04-01T11:35:25;157755.06;;;20.05;68.16
5350;BME280;2697;42.144;24.794;2023-04-01T11:38:12;158004.50;;;21.01;65.06
5350;BME280;2697;42.144;24.794;2023-04-01T11:41:08;157797.53;;;20.21;68.91
5350;BME280;2697;42.144;24.794;2023-04-01T11:46:23;157617.09;;;19.52;72.13
5350;BME280;2697;42.144;24.794;2023-04-01T11:51:51;157959.38;;;20.84;66.04
5350;BME280;2697;42.144;24.794;2023-04-01T11:57:35;157991.25;;;20.96;64.30
5350;BME280;2697;42.144;24.794;2023-04-01T12:03:08;157861.22;;;20.46;66.36
5350;BME280;2697;42.144;24.794;2023-04-01T12:19:01;157614.47;;;19.51;69.57
5350;BME280;2697;42.144;24.794;2023-04-01T12:27:04;157667.53;;;19.72;69.67
5350;BME280;2697;42.144;24.794;2023-04-01T12:35:35;158023.09;;;21.08;64.98
5350;BME280;2697;42.144;24.794;2023-04-01T12:52:10;157974.00;;;20.89;64.75
5350;BME280;2697;42.144;24.794;2023-04-01T12:55:05;158001.84;;;21.00;65.41
5350;BME280;2697;42.144;24.794;2023-04-01T13:08:43;157940.84;;;20.76;67.16
5350;BME280;2697;42.144;24.794;2023-04-01T13:11:21;158019.13;;;21.06;65.22
5350;BME280;2697;42.144;24.794;2023-04-01T13:14:32;158132.00;;;21.50;64.55
5350;BME280;2697;42.144;24.794;2023-04-01T13:27:37;157922.25;;;20.69;64.50
5350;BME280;2697;42.144;24.794;2023-04-01T13:35:55;157602.56;;;19.47;67.79
5350;BME280;2697;42.144;24.794;2023-04-01T13:44:31;157081.84;;;17.47;77.52
5350;BME280;2697;42.144;24.794;2023-04-01T13:47:31;157042.16;;;17.31;77.81
5350;BME280;2697;42.144;24.794;2023-04-01T13:50:53;156990.50;;;17.12;81.76
5350;BME280;2697;42.144;24.794;2023-04-01T13:56:06;156948.19;;;16.95;84.00
5350;BME280;2697;42.144;24.794;2023-04-01T14:07:00;156445.63;;;15.02;100.00
5350;BME280;2697;42.144;24.794;2023-04-01T14:12:35;156275.16;;;14.36;100.00
5350;BME280;2697;42.144;24.794;2023-04-01T14:15:42;156275.16;;;14.36;100.00
5350;BME280;2697;42.144;24.794;2023-04-01T14:24:14;156616.16;;;15.67;100.00
5350;BME280;2697;42.144;24.794;2023-04-01T14:27:09;156774.84;;;16.29;100.00
5350;BME280;2697;42.144;24.794;2023-04-01T14:32:39;156889.94;;;16.73;100.00
5350;BME280;2697;42.144;24.794;2023-04-01T14:35:19;156907.16;;;16.79;100.00
5350;BME280;2697;42.144;24.794;2023-04-01T14:46:47;156774.84;;;16.29;100.00
5350;BME280;2697;42.144;24.794;2023-04-01T14:52:05;156830.38;;;16.50;100.00
5350;BME280;2697;42.144;24.794;2023-04-01T14:54:36;156830.38;;;16.50;100.00
5350;BME280;2697;42.144;24.794;2023-04-01T15:08:01;156565.88;;;15.48;100.00
5350;BME280;2697;42.144;24.794;2023-04-01T15:10:49;156506.38;;;15.25;100.00
5350;BME280;2697;42.144;24.794;2023-04-01T15:18:58;156639.94;;;15.77;100.00
5350;BME280;2697;42.144;24.794;2023-04-01T15:27:37;156594.94;;;15.59;100.00
5350;BME280;2697;42.144;24.794;2023-04-01T15:38:44;156584.41;;;15.55;100.00
5350;BME280;2697;42.144;24.794;2023-04-01T15:41:16;156547.38;;;15.41;100.00
5350;BME280;2697;42.144;24.794;2023-04-01T15:43:51;156518.31;;;15.30;100.00
5350;BME280;2697;42.144;24.794;2023-04-01T15:52:03;156516.97;;;15.29;100.00
5350;BME280;2697;42.144;24.794;2023-04-01T15:57:40;156497.16;;;15.22;100.00
5350;BME280;2697;42.144;24.794;2023-04-01T16:00:29;156497.16;;;15.22;100.00
5350;BME280;2697;42.144;24.794;2023-04-01T16:17:28;156505.06;;;15.25;100.00
5350;BME280;2697;42.144;24.794;2023-04-01T16:20:03;156510.38;;;15.27;100.00
5350;BME280;2697;42.144;24.794;2023-04-01T16:22:41;156499.78;;;15.23;100.00
5350;BME280;2697;42.144;24.794;2023-04-01T16:25:43;156491.88;;;15.20;100.00
5350;BME280;2697;42.144;24.794;2023-04-01T16:28:48;156505.06;;;15.25;100.00
5350;BME280;2697;42.144;24.794;2023-04-01T16:31:41;156481.28;;;15.16;100.00
5350;BME280;2697;42.144;24.794;2023-04-01T16:34:19;156468.09;;;15.10;100.00
5350;BME280;2697;42.144;24.794;2023-04-01T16:37:03;156474.69;;;15.13;100.00
5350;BME280;2697;42.144;24.794;2023-04-01T16:39:50;156481.28;;;15.16;100.00
5350;BME280;2697;42.144;24.794;2023-04-01T16:47:36;156534.19;;;15.36;100.00
5350;BME280;2697;42.144;24.794;2023-04-01T16:50:24;156510.38;;;15.27;100.00
5350;BME280;2697;42.144;24.794;2023-04-01T16:53:17;156355.78;;;14.67;100.00
5350;BME280;2697;42.144;24.794;2023-04-01T16:58:32;156119.34;;;13.76;100.00
5350;BME280;2697;42.144;24.794;2023-04-01T17:01:12;156071.81;;;13.58;100.00
5350;BME280;2697;42.144;24.794;2023-04-01T17:03:43;155947.72;;;13.10;100.00
5350;BME280;2697;42.144;24.794;2023-04-01T17:12:02;21251.25;;;12.90;100.00
5350;BME280;2697;42.144;24.794;2023-04-01T17:14:49;13469.53;;;12.83;100.00
5350;BME280;2697;42.144;24.794;2023-04-01T17:17:23;11778.81;;;12.76;100.00
5350;BME280;2697;42.144;24.794;2023-04-01T17:28:26;7383.78;;;12.24;100.00
5350;BME280;2697;42.144;24.794;2023-04-01T17:33:56;5696.44;;;12.02;100.00
5350;BME280;2697;42.144;24.794;2023-04-01T17:39:33;-2713.50;;;11.88;100.00
5350;BME280;2697;42.144;24.794;2023-04-01T17:42:30;-5400.31;;;11.88;100.00
5350;BME280;2697;42.144;24.794;2023-04-01T17:45:03;-11105.78;;;12.02;100.00
5350;BME280;2697;42.144;24.794;2023-04-01T17:58:45;10432.16;;;12.97;100.00
5350;BME280;2697;42.144;24.794;2023-04-01T18:01:25;44023.72;;;13.16;100.00
5350;BME280;2697;42.144;24.794;2023-04-01T18:09:38;156034.88;;;13.44;100.00
5350;BME280;2697;42.144;24.794;2023-04-01T18:18:15;156077.13;;;13.60;100.00
5350;BME280;2697;42.144;24.794;2023-04-01T18:21:42;156089.00;;;13.64;100.00
5350;BME280;2697;42.144;24.794;2023-04-01T18:23:51;156086.34;;;13.63;100.00
5350;BME280;2697;42.144;24.794;2023-04-01T18:26:24;156103.53;;;13.70;100.00
5350;BME280;2697;42.144;24.794;2023-04-01T18:31:51;156082.41;;;13.62;100.00
5350;BME280;2697;42.144;24.794;2023-04-01T18:37:19;156042.78;;;13.47;100.00
5350;BME280;2697;42.144;24.794;2023-04-01T18:39:51;156024.31;;;13.39;100.00
5350;BME280;2697;42.144;24.794;2023-04-01T18:45:28;156030.94;;;13.42;100.00
5350;BME280;2697;42.144;24.794;2023-04-01T18:48:30;156000.56;;;13.30;100.00
5350;BME280;2697;42.144;24.794;2023-04-01T18:51:01;155987.38;;;13.25;100.00
5350;BME280;2697;42.144;24.794;2023-04-01T18:56:05;155922.66;;;13.00;100.00
5350;BME280;2697;42.144;24.794;2023-04-01T18:58:48;155897.59;;;12.91;100.00
5350;BME280;2697;42.144;24.794;2023-04-01T19:01:19;155875.16;;;12.82;100.00
5350;BME280;2697;42.144;24.794;2023-04-01T19:20:47;155676.06;;;12.05;100.00
5350;BME280;2697;42.144;24.794;2023-04-01T19:25:51;155593.00;;;11.73;100.00
5350;BME280;2697;42.144;24.794;2023-04-01T19:37:40;155561.34;;;11.61;100.00
5350;BME280;2697;42.144;24.794;2023-04-01T19:43:01;155549.50;;;11.56;100.00
5350;BME280;2697;42.144;24.794;2023-04-01T19:45:52;155573.22;;;11.65;100.00
5350;BME280;2697;42.144;24.794;2023-04-01T19:57:09;155509.94;;;11.41;100.00
5350;BME280;2697;42.144;24.794;2023-04-01T20:04:45;155593.00;;;11.73;100.00
5350;BME280;2697;42.144;24.794;2023-04-01T20:09:52;155577.16;;;11.67;100.00
5350;BME280;2697;42.144;24.794;2023-04-01T20:12:47;155586.38;;;11.70;100.00
5350;BME280;2697;42.144;24.794;2023-04-01T20:15:33;155541.56;;;11.53;100.00
5350;BME280;2697;42.144;24.794;2023-04-01T20:20:39;155499.44;;;11.37;100.00
5350;BME280;2697;42.144;24.794;2023-04-01T20:23:18;155500.75;;;11.37;100.00
5350;BME280;2697;42.144;24.794;2023-04-01T20:25:53;155496.78;;;11.36;100.00
5350;BME280;2697;42.144;24.794;2023-04-01T20:28:25;155483.59;;;11.31;100.00
5350;BME280;2697;42.144;24.794;2023-04-01T20:31:17;155467.78;;;11.25;100.00
5350;BME280;2697;42.144;24.794;2023-04-01T20:48:16;155473.09;;;11.27;100.00
5350;BME280;2697;42.144;24.794;2023-04-01T20:50:52;155475.72;;;11.28;100.00
5350;BME280;2697;42.144;24.794;2023-04-01T20:53:28;155480.97;;;11.30;100.00
5350;BME280;2697;42.144;24.794;2023-04-01T21:01:58;155450.69;;;11.18;100.00
5350;BME280;2697;42.144;24.794;2023-04-01T21:13:10;155347.91;;;10.78;100.00
5350;BME280;2697;42.144;24.794;2023-04-01T21:18:53;155334.75;;;10.73;100.00
5350;BME280;2697;42.144;24.794;2023-04-01T21:29:58;155320.25;;;10.68;100.00
5350;BME280;2697;42.144;24.794;2023-04-01T21:32:46;155300.50;;;10.60;100.00
5350;BME280;2697;42.144;24.794;2023-04-01T21:40:49;155338.69;;;10.75;100.00
5350;BME280;2697;42.144;24.794;2023-04-01T21:49:16;155383.50;;;10.92;100.00
5350;BME280;2697;42.144;24.794;2023-04-01T21:52:23;155365.03;;;10.85;100.00
5350;BME280;2697;42.144;24.794;2023-04-01T22:00:38;155345.28;;;10.77;100.00
5350;BME280;2697;42.144;24.794;2023-04-01T22:06:06;155295.25;;;10.58;100.00
5350;BME280;2697;42.144;24.794;2023-04-01T22:13:54;155172.75;;;10.11;100.00
5350;BME280;2697;42.144;24.794;2023-04-01T22:21:58;155149.06;;;10.02;100.00
5350;BME280;2697;42.144;24.794;2023-04-01T22:24:33;155172.75;;;10.11;100.00
5350;BME280;2697;42.144;24.794;2023-04-01T22:32:32;155242.56;;;10.38;100.00
5350;BME280;2697;42.144;24.794;2023-04-01T22:35:18;155264.97;;;10.46;100.00
5350;BME280;2697;42.144;24.794;2023-04-01T22:38:11;155282.09;;;10.53;100.00
5350;BME280;2697;42.144;24.794;2023-04-01T22:43:54;155264.97;;;10.46;100.00
5350;BME280;2697;42.144;24.794;2023-04-01T22:49:21;155284.72;;;10.54;100.00
5350;BME280;2697;42.144;24.794;2023-04-01T22:52:05;155266.28;;;10.47;100.00
5350;BME280;2697;42.144;24.794;2023-04-01T22:54:55;155282.09;;;10.53;100.00
5350;BME280;2697;42.144;24.794;2023-04-01T23:00:20;155304.47;;;10.62;100.00
5350;BME280;2697;42.144;24.794;2023-04-01T23:05:18;155268.91;;;10.48;100.00
5350;BME280;2697;42.144;24.794;2023-04-01T23:07:58;155275.47;;;10.50;100.00
5350;BME280;2697;42.144;24.794;2023-04-01T23:13:05;155278.09;;;10.51;100.00
5350;BME280;2697;42.144;24.794;2023-04-01T23:15:36;155283.41;;;10.53;100.00
5350;BME280;2697;42.144;24.794;2023-04-01T23:18:04;155330.81;;;10.72;100.00